createdAt,value
2022-12-16T00:00:26.930Z,3
2022-12-16T00:02:24.545Z,3
2022-12-16T00:04:24.847Z,3
2022-12-16T00:06:24.047Z,3
2022-12-16T00:08:24.476Z,3
2022-12-16T00:10:24.568Z,3
2022-12-16T00:12:23.993Z,3
2022-12-16T00:14:24.255Z,3
2022-12-16T00:16:25.000Z,3
2022-12-16T00:18:24.034Z,3
2022-12-16T00:20:24.573Z,3
2022-12-16T00:22:23.986Z,3
2022-12-16T00:24:24.126Z,3
2022-12-16T00:26:24.560Z,3
2022-12-16T00:28:23.978Z,3
2022-12-16T00:30:24.434Z,3
2022-12-16T00:32:23.990Z,3
2022-12-16T00:34:24.259Z,3
2022-12-16T00:36:23.747Z,3
2022-12-16T00:38:24.020Z,3
2022-12-16T00:40:24.452Z,3
2022-12-16T00:42:23.820Z,3
2022-12-16T00:44:24.087Z,3
2022-12-16T00:46:24.792Z,3
2022-12-16T00:48:23.909Z,3
2022-12-16T00:50:24.281Z,3
2022-12-16T00:52:24.598Z,3
2022-12-16T00:54:24.047Z,3
2022-12-16T00:56:24.287Z,3
2022-12-16T00:58:24.528Z,3
2022-12-16T01:00:27.313Z,3
2022-12-16T01:02:25.417Z,3
2022-12-16T01:04:24.086Z,3
2022-12-16T01:06:24.356Z,3
2022-12-16T01:08:24.624Z,3
2022-12-16T01:10:24.042Z,3
2022-12-16T01:12:24.282Z,3
2022-12-16T01:14:24.587Z,3
2022-12-16T01:16:24.135Z,3
2022-12-16T01:18:24.112Z,3
2022-12-16T01:20:24.305Z,3
2022-12-16T01:22:24.747Z,3
2022-12-16T01:24:24.144Z,3
2022-12-16T01:26:24.315Z,3
2022-12-16T01:28:24.604Z,3
2022-12-16T01:30:24.008Z,3
2022-12-16T01:32:24.862Z,3
2022-12-16T01:34:24.730Z,3
2022-12-16T01:36:24.126Z,3
2022-12-16T01:38:24.506Z,3
2022-12-16T01:40:24.024Z,3
2022-12-16T01:42:24.485Z,3
2022-12-16T01:44:24.520Z,3
2022-12-16T01:46:24.268Z,3
2022-12-16T01:48:24.336Z,3
2022-12-16T01:50:25.312Z,3
2022-12-16T01:52:24.328Z,3
2022-12-16T01:54:24.738Z,3
2022-12-16T01:56:24.016Z,3
2022-12-16T01:58:24.419Z,3
2022-12-16T02:00:27.132Z,3
2022-12-16T02:02:24.491Z,3
2022-12-16T02:04:24.119Z,3
2022-12-16T02:06:24.385Z,3
2022-12-16T02:08:23.826Z,3
2022-12-16T02:10:24.146Z,3
2022-12-16T02:12:24.578Z,3
2022-12-16T02:14:23.969Z,3
2022-12-16T02:16:28.787Z,3
2022-12-16T02:18:23.826Z,3
2022-12-16T02:20:24.306Z,3
2022-12-16T02:22:24.494Z,3
2022-12-16T02:24:24.002Z,3
2022-12-16T02:26:24.297Z,3
2022-12-16T02:28:23.749Z,3
2022-12-16T02:30:24.079Z,3
2022-12-16T02:32:24.365Z,3
2022-12-16T02:34:24.508Z,3
2022-12-16T02:36:24.713Z,3
2022-12-16T02:38:23.833Z,3
2022-12-16T02:40:24.216Z,3
2022-12-16T02:42:24.584Z,3
2022-12-16T02:44:23.856Z,3
2022-12-16T02:46:24.702Z,3
2022-12-16T02:48:24.521Z,3
2022-12-16T02:50:23.893Z,3
2022-12-16T02:52:24.072Z,3
2022-12-16T02:54:24.279Z,3
2022-12-16T02:56:24.499Z,3
2022-12-16T02:58:23.715Z,3
2022-12-16T03:00:25.125Z,3
2022-12-16T03:02:25.534Z,3
2022-12-16T03:04:24.074Z,3
2022-12-16T03:06:24.241Z,3
2022-12-16T03:08:24.484Z,3
2022-12-16T03:10:24.865Z,3
2022-12-16T03:12:23.906Z,3
2022-12-16T03:14:24.230Z,3
2022-12-16T03:16:24.642Z,3
2022-12-16T03:18:24.678Z,3
2022-12-16T03:20:24.061Z,3
2022-12-16T03:22:24.221Z,3
2022-12-16T03:24:24.656Z,3
2022-12-16T03:26:23.827Z,3
2022-12-16T03:28:24.082Z,3
2022-12-16T03:30:24.594Z,3
2022-12-16T03:32:23.824Z,3
2022-12-16T03:34:23.942Z,3
2022-12-16T03:36:24.034Z,3
2022-12-16T03:38:24.293Z,3
2022-12-16T03:40:24.551Z,3
2022-12-16T03:42:23.805Z,3
2022-12-16T03:44:24.308Z,3
2022-12-16T03:46:24.942Z,3
2022-12-16T03:48:24.699Z,3
2022-12-16T03:50:23.877Z,3
2022-12-16T03:52:24.233Z,3
2022-12-16T03:54:24.391Z,3
2022-12-16T03:56:24.692Z,3
2022-12-16T03:58:23.983Z,3
2022-12-16T04:00:27.951Z,3
2022-12-16T04:02:25.573Z,3
2022-12-16T04:04:24.045Z,3
2022-12-16T04:06:24.174Z,3
2022-12-16T04:08:25.022Z,3
2022-12-16T04:10:23.953Z,3
2022-12-16T04:12:24.220Z,3
2022-12-16T04:14:24.401Z,3
2022-12-16T04:16:25.005Z,3
2022-12-16T04:18:24.205Z,3
2022-12-16T04:20:24.540Z,3
2022-12-16T04:22:23.845Z,3
2022-12-16T04:24:24.263Z,3
2022-12-16T04:26:24.686Z,3
2022-12-16T04:28:23.761Z,3
2022-12-16T04:30:24.147Z,3
2022-12-16T04:32:24.368Z,3
2022-12-16T04:34:23.884Z,3
2022-12-16T04:36:24.133Z,3
2022-12-16T04:38:24.558Z,3
2022-12-16T04:40:24.039Z,3
2022-12-16T04:42:24.612Z,3
2022-12-16T04:44:24.832Z,3
2022-12-16T04:46:24.906Z,3
2022-12-16T04:48:24.139Z,3
2022-12-16T04:50:24.424Z,3
2022-12-16T04:52:23.798Z,3
2022-12-16T04:54:24.066Z,3
2022-12-16T04:56:27.299Z,3
2022-12-16T04:58:24.670Z,3
2022-12-16T05:00:27.064Z,3
2022-12-16T05:02:24.730Z,3
2022-12-16T05:04:24.433Z,3
2022-12-16T05:06:24.689Z,3
2022-12-16T05:08:23.834Z,3
2022-12-16T05:10:24.303Z,3
2022-12-16T05:12:24.613Z,3
2022-12-16T05:14:23.900Z,3
2022-12-16T05:16:24.608Z,3
2022-12-16T05:18:24.545Z,3
2022-12-16T05:20:23.892Z,3
2022-12-16T05:22:24.435Z,3
2022-12-16T05:24:23.894Z,3
2022-12-16T05:26:24.112Z,3
2022-12-16T05:28:24.493Z,3
2022-12-16T05:30:26.870Z,3
2022-12-16T05:32:24.353Z,3
2022-12-16T05:34:23.831Z,3
2022-12-16T05:36:24.004Z,3
2022-12-16T05:38:24.337Z,3
2022-12-16T05:40:24.574Z,3
2022-12-16T05:42:23.956Z,3
2022-12-16T05:44:24.121Z,3
2022-12-16T05:46:25.121Z,3
2022-12-16T05:48:23.964Z,3
2022-12-16T05:50:24.317Z,3
2022-12-16T05:52:24.511Z,3
2022-12-16T05:54:23.921Z,3
2022-12-16T05:56:24.154Z,3
2022-12-16T05:58:24.415Z,3
2022-12-16T06:00:27.834Z,3
2022-12-16T06:02:24.747Z,3
2022-12-16T06:04:29.274Z,3
2022-12-16T06:06:24.685Z,3
2022-12-16T06:08:23.905Z,3
2022-12-16T06:10:24.173Z,3
2022-12-16T06:12:24.535Z,3
2022-12-16T06:14:24.750Z,3
2022-12-16T06:16:31.147Z,3
2022-12-16T06:18:24.451Z,3
2022-12-16T06:20:24.848Z,3
2022-12-16T06:22:23.886Z,3
2022-12-16T06:24:24.068Z,3
2022-12-16T06:26:24.599Z,3
2022-12-16T06:28:24.682Z,3
2022-12-16T06:30:23.935Z,3
2022-12-16T06:32:24.746Z,3
2022-12-16T06:34:24.664Z,3
2022-12-16T06:36:23.935Z,3
2022-12-16T06:38:24.373Z,3
2022-12-16T06:40:24.799Z,3
2022-12-16T06:42:23.945Z,3
2022-12-16T06:44:24.264Z,3
2022-12-16T06:46:24.979Z,3
2022-12-16T06:48:24.145Z,3
2022-12-16T06:50:24.344Z,3
2022-12-16T06:52:23.932Z,3
2022-12-16T06:54:24.276Z,3
2022-12-16T06:56:24.451Z,3
2022-12-16T06:58:25.858Z,3
2022-12-16T07:00:26.827Z,3
2022-12-16T07:02:25.228Z,3
2022-12-16T07:04:23.868Z,3
2022-12-16T07:06:24.122Z,3
2022-12-16T07:08:24.667Z,3
2022-12-16T07:10:23.993Z,3
2022-12-16T07:12:24.284Z,3
2022-12-16T07:14:24.539Z,3
2022-12-16T07:16:24.319Z,3
2022-12-16T07:18:24.151Z,3
2022-12-16T07:20:24.382Z,3
2022-12-16T07:22:24.590Z,3
2022-12-16T07:24:23.869Z,3
2022-12-16T07:26:24.123Z,3
2022-12-16T07:28:27.257Z,3
2022-12-16T07:30:23.847Z,3
2022-12-16T07:32:24.337Z,3
2022-12-16T07:34:24.228Z,3
2022-12-16T07:36:24.498Z,3
2022-12-16T07:38:24.665Z,3
2022-12-16T07:40:23.898Z,3
2022-12-16T07:42:24.109Z,3
2022-12-16T07:44:24.325Z,3
2022-12-16T07:46:24.640Z,3
2022-12-16T07:48:24.537Z,3
2022-12-16T07:50:24.798Z,3
2022-12-16T07:52:24.107Z,3
2022-12-16T07:54:24.268Z,3
2022-12-16T07:56:24.661Z,3
2022-12-16T07:58:23.805Z,3
2022-12-16T08:00:28.121Z,3
2022-12-16T08:02:24.720Z,3
2022-12-16T08:04:24.384Z,3
2022-12-16T08:06:24.539Z,3
2022-12-16T08:08:23.868Z,3
2022-12-16T08:10:24.210Z,3
2022-12-16T08:12:24.526Z,3
2022-12-16T08:14:24.001Z,3
2022-12-16T08:16:24.394Z,3
2022-12-16T08:18:24.424Z,3
2022-12-16T08:20:24.666Z,3
2022-12-16T08:22:24.043Z,3
2022-12-16T08:24:24.304Z,3
2022-12-16T08:26:24.511Z,3
2022-12-16T08:28:24.847Z,3
2022-12-16T08:30:24.023Z,3
2022-12-16T08:32:24.624Z,3
2022-12-16T08:34:24.681Z,3
2022-12-16T08:36:23.925Z,3
2022-12-16T08:38:25.492Z,3
2022-12-16T08:40:57.157Z,3
2022-12-16T08:42:24.666Z,3
2022-12-16T08:44:23.934Z,3
2022-12-16T08:46:24.479Z,3
2022-12-16T08:48:24.345Z,3
2022-12-16T08:50:25.395Z,3
2022-12-16T08:52:24.107Z,3
2022-12-16T08:54:24.098Z,3
2022-12-16T08:56:24.387Z,3
2022-12-16T08:58:23.784Z,3
2022-12-16T09:00:27.310Z,3
2022-12-16T09:02:25.145Z,3
2022-12-16T09:04:24.847Z,3
2022-12-16T09:06:23.968Z,3
2022-12-16T09:08:24.403Z,3
2022-12-16T09:10:24.778Z,3
2022-12-16T09:12:24.314Z,3
2022-12-16T09:14:24.436Z,3
2022-12-16T09:16:30.664Z,3
2022-12-16T09:18:24.116Z,3
2022-12-16T09:20:24.279Z,3
2022-12-16T09:22:24.643Z,3
2022-12-16T09:24:23.870Z,3
2022-12-16T09:26:24.311Z,3
2022-12-16T09:28:24.533Z,3
2022-12-16T09:30:23.898Z,3
2022-12-16T09:32:24.152Z,3
2022-12-16T09:34:24.412Z,3
2022-12-16T09:36:24.508Z,3
2022-12-16T09:38:23.976Z,3
2022-12-16T09:40:24.145Z,3
2022-12-16T09:42:24.329Z,3
2022-12-16T09:44:24.587Z,3
2022-12-16T09:46:24.143Z,3
2022-12-16T09:48:24.261Z,3
2022-12-16T09:50:24.603Z,3
2022-12-16T09:52:29.854Z,3
2022-12-16T09:54:24.218Z,3
2022-12-16T09:56:24.601Z,3
2022-12-16T09:58:24.059Z,3
2022-12-16T10:00:29.902Z,3
2022-12-16T10:02:25.296Z,3
2022-12-16T10:04:24.348Z,3
2022-12-16T10:06:24.662Z,3
2022-12-16T10:08:30.304Z,3
2022-12-16T10:10:24.152Z,3
2022-12-16T10:12:24.358Z,3
2022-12-16T10:14:30.628Z,3
2022-12-16T10:16:25.227Z,3
2022-12-16T10:18:24.269Z,3
2022-12-16T10:20:31.825Z,3
2022-12-16T10:22:24.577Z,3
2022-12-16T10:24:24.681Z,3
2022-12-16T10:26:23.988Z,3
2022-12-16T10:28:24.475Z,3
2022-12-16T10:30:23.808Z,3
2022-12-16T10:32:24.268Z,3
2022-12-16T10:34:24.473Z,3
2022-12-16T10:36:24.786Z,3
2022-12-16T10:38:24.098Z,3
2022-12-16T10:40:24.268Z,3
2022-12-16T10:42:24.714Z,3
2022-12-16T10:44:23.915Z,3
2022-12-16T10:46:24.444Z,3
2022-12-16T10:48:24.555Z,3
2022-12-16T10:50:24.579Z,3
2022-12-16T10:52:31.664Z,3
2022-12-16T10:54:24.620Z,3
2022-12-16T10:56:23.927Z,3
2022-12-16T10:58:24.173Z,1
2022-12-16T11:00:27.317Z,1
2022-12-16T11:02:24.832Z,1
2022-12-16T11:04:24.498Z,1
2022-12-16T11:06:24.726Z,1
2022-12-16T11:08:23.820Z,1
2022-12-16T11:10:24.174Z,0
2022-12-16T11:12:24.372Z,0
2022-12-16T11:14:24.681Z,0
2022-12-16T11:16:24.208Z,1
2022-12-16T11:18:23.947Z,1
2022-12-16T11:20:24.334Z,1
2022-12-16T11:22:24.514Z,3
2022-12-16T11:24:23.725Z,3
2022-12-16T11:26:24.151Z,3
2022-12-16T11:28:24.517Z,3
2022-12-16T11:30:23.827Z,3
2022-12-16T11:32:24.154Z,3
2022-12-16T11:34:24.575Z,3
2022-12-16T11:36:23.945Z,3
2022-12-16T11:38:24.317Z,3
2022-12-16T11:40:24.696Z,1
2022-12-16T11:42:24.104Z,1
2022-12-16T11:44:24.434Z,1
2022-12-16T11:46:23.966Z,1
2022-12-16T11:48:24.143Z,1
2022-12-16T11:50:24.580Z,1
2022-12-16T11:52:58.296Z,1
2022-12-16T11:54:24.106Z,1
2022-12-16T11:56:38.481Z,1
2022-12-16T11:58:23.960Z,3
2022-12-16T12:00:27.900Z,3
2022-12-16T12:02:24.262Z,3
2022-12-16T12:04:24.729Z,1
2022-12-16T12:06:24.413Z,1
2022-12-16T12:08:24.400Z,1
2022-12-16T12:10:23.921Z,1
2022-12-16T12:12:24.291Z,1
2022-12-16T12:14:24.954Z,1
2022-12-16T12:16:24.617Z,3
2022-12-16T12:18:24.419Z,3
2022-12-16T12:20:24.703Z,3
2022-12-16T12:22:24.011Z,3
2022-12-16T12:24:24.309Z,3
2022-12-16T12:26:24.616Z,3
2022-12-16T12:28:24.009Z,3
2022-12-16T12:30:28.039Z,1
2022-12-16T12:32:24.507Z,1
2022-12-16T12:34:24.704Z,1
2022-12-16T12:36:24.081Z,1
2022-12-16T12:38:24.405Z,1
2022-12-16T12:40:24.685Z,1
2022-12-16T12:42:24.039Z,1
2022-12-16T12:44:24.847Z,1
2022-12-16T12:46:24.909Z,1
2022-12-16T12:48:24.138Z,1
2022-12-16T12:50:24.644Z,1
2022-12-16T12:52:24.550Z,3
2022-12-16T12:54:26.583Z,3
2022-12-16T12:56:24.247Z,3
2022-12-16T12:58:24.424Z,1
2022-12-16T13:00:27.199Z,1
2022-12-16T13:02:25.207Z,1
2022-12-16T13:04:24.716Z,1
2022-12-16T13:06:24.673Z,1
2022-12-16T13:08:23.865Z,1
2022-12-16T13:10:24.621Z,1
2022-12-16T13:12:24.550Z,1
2022-12-16T13:14:24.558Z,1
2022-12-16T13:16:24.056Z,1
2022-12-16T13:18:24.118Z,1
2022-12-16T13:20:24.423Z,1
2022-12-16T13:22:24.506Z,3
2022-12-16T13:24:24.708Z,3
2022-12-16T13:26:23.947Z,3
2022-12-16T13:28:24.482Z,0
2022-12-16T13:30:24.582Z,0
2022-12-16T13:32:24.202Z,0
2022-12-16T13:34:24.275Z,2
2022-12-16T13:36:24.630Z,2
2022-12-16T13:38:24.355Z,2
2022-12-16T13:40:24.582Z,1
2022-12-16T13:42:23.949Z,1
2022-12-16T13:44:24.180Z,1
2022-12-16T13:46:24.725Z,1
2022-12-16T13:48:24.784Z,1
2022-12-16T13:50:24.087Z,1
2022-12-16T13:52:24.392Z,0
2022-12-16T13:54:24.770Z,0
2022-12-16T13:56:23.983Z,0
2022-12-16T13:58:24.453Z,0
2022-12-16T14:00:29.767Z,0
2022-12-16T14:02:25.347Z,0
2022-12-16T14:04:24.142Z,0
2022-12-16T14:06:24.468Z,0
2022-12-16T14:08:24.126Z,0
2022-12-16T14:10:24.386Z,0
2022-12-16T14:12:24.707Z,0
2022-12-16T14:14:23.916Z,0
2022-12-16T14:16:24.468Z,0
2022-12-16T14:18:24.639Z,0
2022-12-16T14:20:24.722Z,0
2022-12-16T14:22:23.995Z,1
2022-12-16T14:24:25.144Z,1
2022-12-16T14:26:23.930Z,1
2022-12-16T14:28:24.444Z,1
2022-12-16T14:30:24.712Z,1
2022-12-16T14:32:23.987Z,0
2022-12-16T14:34:23.969Z,0
2022-12-16T14:36:24.369Z,0
2022-12-16T14:38:24.603Z,0
2022-12-16T14:40:23.989Z,0
2022-12-16T14:42:24.285Z,0
2022-12-16T14:44:24.640Z,0
2022-12-16T14:46:24.228Z,0
2022-12-16T14:48:24.383Z,0
2022-12-16T14:50:24.516Z,0
2022-12-16T14:52:24.747Z,0
2022-12-16T14:54:24.152Z,0
2022-12-16T14:56:24.510Z,1
2022-12-16T14:58:24.734Z,1
2022-12-16T15:00:27.699Z,1
2022-12-16T15:02:25.775Z,0
2022-12-16T15:04:25.190Z,0
2022-12-16T15:06:24.242Z,0
2022-12-16T15:08:24.495Z,1
2022-12-16T15:10:24.701Z,1
2022-12-16T15:12:23.963Z,1
2022-12-16T15:14:26.609Z,1
2022-12-16T15:16:24.732Z,1
2022-12-16T15:20:26.618Z,1
2022-12-16T15:24:24.720Z,1
2022-12-16T15:28:24.188Z,1
2022-12-16T15:32:26.420Z,1
2022-12-16T15:36:24.498Z,1
2022-12-16T15:40:24.132Z,1
2022-12-16T15:44:24.011Z,2
2022-12-16T15:48:24.548Z,2
2022-12-16T15:52:24.137Z,1
2022-12-16T15:56:27.992Z,1
2022-12-16T16:00:27.395Z,1
2022-12-16T16:04:24.853Z,1
2022-12-16T16:08:28.368Z,1
2022-12-16T16:12:23.949Z,1
2022-12-16T16:16:25.066Z,0
2022-12-16T16:20:26.700Z,0
2022-12-16T16:24:23.829Z,0
2022-12-16T16:28:24.686Z,1
2022-12-16T16:32:27.185Z,1
2022-12-16T16:36:24.117Z,1
2022-12-16T16:40:23.886Z,1
2022-12-16T16:44:30.772Z,1
2022-12-16T16:48:24.380Z,1
2022-12-16T16:52:24.107Z,1
2022-12-16T16:56:31.379Z,1
2022-12-16T17:00:27.643Z,1
2022-12-16T17:04:25.055Z,1
2022-12-16T17:08:24.182Z,2
2022-12-16T17:12:23.827Z,2
2022-12-16T17:16:24.587Z,1
2022-12-16T17:20:24.540Z,1
2022-12-16T17:24:24.186Z,1
2022-12-16T17:28:24.515Z,1
2022-12-16T17:32:24.202Z,1
2022-12-16T17:36:28.537Z,1
2022-12-16T17:40:24.531Z,0
2022-12-16T17:44:24.327Z,1
2022-12-16T17:48:23.881Z,1
2022-12-16T17:52:24.710Z,3
2022-12-16T17:56:23.857Z,1
2022-12-16T18:00:28.931Z,1
2022-12-16T18:04:24.906Z,3
2022-12-16T18:08:24.566Z,1
2022-12-16T18:12:24.257Z,1
2022-12-16T18:16:24.128Z,1
2022-12-16T18:20:24.609Z,3
2022-12-16T18:24:23.928Z,3
2022-12-16T18:28:24.727Z,3
2022-12-16T18:32:24.423Z,1
2022-12-16T18:36:23.939Z,3
2022-12-16T18:40:24.410Z,1
2022-12-16T18:44:24.120Z,3
2022-12-16T18:48:24.662Z,1
2022-12-16T18:52:24.351Z,3
2022-12-16T18:56:24.000Z,3
2022-12-16T19:00:27.367Z,3
2022-12-16T19:04:24.359Z,0
2022-12-16T19:08:25.987Z,0
2022-12-16T19:12:24.623Z,0
2022-12-16T19:16:24.393Z,0
2022-12-16T19:20:26.284Z,0
2022-12-16T19:24:24.789Z,0
2022-12-16T19:28:23.835Z,0
2022-12-16T19:32:24.639Z,0
2022-12-16T19:36:24.019Z,0
2022-12-16T19:40:24.794Z,0
2022-12-16T19:44:28.754Z,0
2022-12-16T19:48:24.075Z,0
2022-12-16T19:52:24.747Z,0
2022-12-16T19:56:24.157Z,0
2022-12-16T20:00:27.531Z,3
2022-12-16T20:04:24.214Z,3
2022-12-16T20:08:24.666Z,3
2022-12-16T20:12:24.005Z,4
2022-12-16T20:16:24.763Z,4
2022-12-16T20:20:24.178Z,4
2022-12-16T20:24:23.897Z,7
2022-12-16T20:28:25.117Z,6
2022-12-16T20:32:23.802Z,6
2022-12-16T20:36:24.628Z,4
2022-12-16T20:40:24.311Z,6
2022-12-16T20:44:23.979Z,6
2022-12-16T20:48:24.799Z,4
2022-12-16T20:52:24.290Z,4
2022-12-16T20:56:24.141Z,4
2022-12-16T21:00:28.562Z,6
2022-12-16T21:04:23.995Z,6
2022-12-16T21:08:24.696Z,3
2022-12-16T21:12:24.471Z,6
2022-12-16T21:16:24.254Z,6
2022-12-16T21:20:23.832Z,7
2022-12-16T21:24:24.576Z,9
2022-12-16T21:28:24.580Z,9
2022-12-16T21:32:24.244Z,10
2022-12-16T21:36:23.934Z,6
2022-12-16T21:40:24.765Z,6
2022-12-16T21:44:24.688Z,7
2022-12-16T21:48:24.636Z,7
2022-12-16T21:52:24.128Z,7
2022-12-16T21:56:23.921Z,7
2022-12-16T22:00:27.581Z,10
2022-12-16T22:04:24.548Z,7
2022-12-16T22:08:24.212Z,7
2022-12-16T22:12:23.967Z,7
2022-12-16T22:16:25.492Z,7
2022-12-16T22:20:24.154Z,9
2022-12-16T22:24:24.723Z,9
2022-12-16T22:28:24.468Z,9
2022-12-16T22:32:24.246Z,9
2022-12-16T22:36:24.735Z,9
2022-12-16T22:38:24.221Z,9
2022-12-16T22:40:24.663Z,7
2022-12-16T22:44:24.349Z,12
2022-12-16T22:48:24.155Z,7
2022-12-16T22:52:23.744Z,7
2022-12-16T22:56:25.013Z,7
2022-12-16T23:00:29.343Z,10
2022-12-16T23:04:24.750Z,12
2022-12-16T23:08:24.356Z,12
2022-12-16T23:12:24.069Z,10
2022-12-16T23:16:24.676Z,15
2022-12-16T23:20:24.346Z,6
2022-12-16T23:24:24.105Z,12
2022-12-16T23:28:24.477Z,10
2022-12-16T23:32:24.129Z,9
2022-12-16T23:34:24.217Z,10
2022-12-16T23:36:24.580Z,10
2022-12-16T23:38:23.736Z,10
2022-12-16T23:40:24.131Z,9
2022-12-16T23:42:24.516Z,9
2022-12-16T23:44:24.716Z,9
2022-12-16T23:46:24.245Z,13
2022-12-16T23:48:24.454Z,13
2022-12-16T23:50:27.394Z,13
2022-12-16T23:52:24.069Z,13
2022-12-16T23:54:24.343Z,13
2022-12-16T23:56:24.728Z,13
2022-12-16T23:58:23.979Z,13
